sensor_id;sensor_type;location;lat;lon;timestamp;temperature;humidity
10472;DHT22;5283;48.876;8.962;2022-09-29T00:00:21;5.50;99.90
10472;DHT22;5283;48.876;8.962;2022-09-29T00:02:48;5.60;99.90
10472;DHT22;5283;48.876;8.962;2022-09-29T00:05:14;5.60;99.90
10472;DHT22;5283;48.876;8.962;2022-09-29T00:07:41;5.60;99.90
10472;DHT22;5283;48.876;8.962;2022-09-29T00:10:07;5.70;99.90
10472;DHT22;5283;48.876;8.962;2022-09-29T00:12:34;5.70;99.90
10472;DHT22;5283;48.876;8.962;2022-09-29T00:15:01;5.70;99.90
10472;DHT22;5283;48.876;8.962;2022-09-29T00:17:27;5.70;99.90
10472;DHT22;5283;48.876;8.962;2022-09-29T00:19:54;5.70;99.90
10472;DHT22;5283;48.876;8.962;2022-09-29T00:22:21;5.60;99.90
10472;DHT22;5283;48.876;8.962;2022-09-29T00:24:48;5.60;99.90
10472;DHT22;5283;48.876;8.962;2022-09-29T00:27:15;5.40;99.90
10472;DHT22;5283;48.876;8.962;2022-09-29T00:29:42;5.30;99.90
10472;DHT22;5283;48.876;8.962;2022-09-29T00:32:09;5.20;99.90
10472;DHT22;5283;48.876;8.962;2022-09-29T00:34:36;5.20;99.90
10472;DHT22;5283;48.876;8.962;2022-09-29T00:37:04;5.10;99.90
10472;DHT22;5283;48.876;8.962;2022-09-29T00:39:30;4.90;99.90
10472;DHT22;5283;48.876;8.962;2022-09-29T00:41:57;4.80;99.90
10472;DHT22;5283;48.876;8.962;2022-09-29T00:47:00;4.70;99.90
10472;DHT22;5283;48.876;8.962;2022-09-29T00:52:24;4.60;99.90
10472;DHT22;5283;48.876;8.962;2022-09-29T00:54:55;4.70;99.90
10472;DHT22;5283;48.876;8.962;2022-09-29T00:57:28;4.80;99.90
10472;DHT22;5283;48.876;8.962;2022-09-29T01:00:07;4.60;99.90
10472;DHT22;5283;48.876;8.962;2022-09-29T01:02:45;4.60;99.90
10472;DHT22;5283;48.876;8.962;2022-09-29T01:05:16;4.60;99.90
10472;DHT22;5283;48.876;8.962;2022-09-29T01:07:44;4.60;99.90
10472;DHT22;5283;48.876;8.962;2022-09-29T01:10:14;4.40;99.90
10472;DHT22;5283;48.876;8.962;2022-09-29T01:12:44;4.40;99.90
10472;DHT22;5283;48.876;8.962;2022-09-29T01:15:13;4.40;99.90
10472;DHT22;5283;48.876;8.962;2022-09-29T01:17:41;4.30;99.90
10472;DHT22;5283;48.876;8.962;2022-09-29T01:20:17;4.30;99.90
10472;DHT22;5283;48.876;8.962;2022-09-29T01:25:48;4.60;99.90
10472;DHT22;5283;48.876;8.962;2022-09-29T01:28:42;4.70;99.90
10472;DHT22;5283;48.876;8.962;2022-09-29T01:31:22;4.80;99.90
10472;DHT22;5283;48.876;8.962;2022-09-29T01:37:16;5.10;99.90
10472;DHT22;5283;48.876;8.962;2022-09-29T01:39:58;5.30;99.90
10472;DHT22;5283;48.876;8.962;2022-09-29T01:42:42;5.40;99.90
10472;DHT22;5283;48.876;8.962;2022-09-29T01:45:35;5.50;99.90
10472;DHT22;5283;48.876;8.962;2022-09-29T01:48:09;5.60;99.90
10472;DHT22;5283;48.876;8.962;2022-09-29T01:50:46;5.60;99.90
10472;DHT22;5283;48.876;8.962;2022-09-29T01:53:34;5.60;99.90
10472;DHT22;5283;48.876;8.962;2022-09-29T01:56:07;5.70;99.90
10472;DHT22;5283;48.876;8.962;2022-09-29T01:58:57;5.70;99.90
10472;DHT22;5283;48.876;8.962;2022-09-29T02:01:30;5.70;99.90
10472;DHT22;5283;48.876;8.962;2022-09-29T02:04:08;5.70;99.90
10472;DHT22;5283;48.876;8.962;2022-09-29T02:06:44;5.70;99.90
10472;DHT22;5283;48.876;8.962;2022-09-29T02:09:24;5.70;99.90
10472;DHT22;5283;48.876;8.962;2022-09-29T02:11:53;5.80;99.90
10472;DHT22;5283;48.876;8.962;2022-09-29T02:14:30;5.80;99.90
10472;DHT22;5283;48.876;8.962;2022-09-29T02:17:28;5.90;99.90
10472;DHT22;5283;48.876;8.962;2022-09-29T02:19:51;5.90;99.90
10472;DHT22;5283;48.876;8.962;2022-09-29T02:22:19;6.10;99.90
10472;DHT22;5283;48.876;8.962;2022-09-29T02:24:47;6.10;99.90
10472;DHT22;5283;48.876;8.962;2022-09-29T02:27:16;6.10;99.90
10472;DHT22;5283;48.876;8.962;2022-09-29T02:29:44;6.20;99.90
10472;DHT22;5283;48.876;8.962;2022-09-29T02:32:11;6.20;99.90
10472;DHT22;5283;48.876;8.962;2022-09-29T02:34:41;6.20;99.90
10472;DHT22;5283;48.876;8.962;2022-09-29T02:48:37;6.40;99.90
10472;DHT22;5283;48.876;8.962;2022-09-29T03:00:06;6.30;99.90
10472;DHT22;5283;48.876;8.962;2022-09-29T03:02:38;6.30;99.90
10472;DHT22;5283;48.876;8.962;2022-09-29T03:05:08;6.30;99.90
10472;DHT22;5283;48.876;8.962;2022-09-29T03:07:37;6.30;99.90
10472;DHT22;5283;48.876;8.962;2022-09-29T03:10:05;6.40;99.90
10472;DHT22;5283;48.876;8.962;2022-09-29T03:12:32;6.40;99.90
10472;DHT22;5283;48.876;8.962;2022-09-29T03:14:59;6.50;99.90
10472;DHT22;5283;48.876;8.962;2022-09-29T03:17:25;6.50;99.90
10472;DHT22;5283;48.876;8.962;2022-09-29T03:19:52;6.60;99.90
10472;DHT22;5283;48.876;8.962;2022-09-29T03:22:19;6.60;99.90
10472;DHT22;5283;48.876;8.962;2022-09-29T03:24:45;6.50;99.90
10472;DHT22;5283;48.876;8.962;2022-09-29T03:27:12;6.50;99.90
10472;DHT22;5283;48.876;8.962;2022-09-29T03:29:39;6.50;99.90
10472;DHT22;5283;48.876;8.962;2022-09-29T03:32:06;6.50;99.90
10472;DHT22;5283;48.876;8.962;2022-09-29T03:34:33;6.40;99.90
10472;DHT22;5283;48.876;8.962;2022-09-29T03:37:00;6.50;99.90
10472;DHT22;5283;48.876;8.962;2022-09-29T03:39:27;6.50;99.90
10472;DHT22;5283;48.876;8.962;2022-09-29T03:41:54;6.50;99.90
10472;DHT22;5283;48.876;8.962;2022-09-29T03:44:20;6.40;99.90
10472;DHT22;5283;48.876;8.962;2022-09-29T03:46:47;6.40;99.90
10472;DHT22;5283;48.876;8.962;2022-09-29T03:49:14;6.40;99.90
10472;DHT22;5283;48.876;8.962;2022-09-29T03:51:42;6.40;99.90
10472;DHT22;5283;48.876;8.962;2022-09-29T03:54:09;6.40;99.90
10472;DHT22;5283;48.876;8.962;2022-09-29T03:56:36;6.30;99.90
10472;DHT22;5283;48.876;8.962;2022-09-29T03:59:04;6.20;99.90
10472;DHT22;5283;48.876;8.962;2022-09-29T04:01:34;6.10;99.90
10472;DHT22;5283;48.876;8.962;2022-09-29T04:04:01;5.90;99.90
10472;DHT22;5283;48.876;8.962;2022-09-29T04:06:28;5.80;99.90
10472;DHT22;5283;48.876;8.962;2022-09-29T04:08:55;5.70;99.90
10472;DHT22;5283;48.876;8.962;2022-09-29T04:11:21;5.60;99.90
10472;DHT22;5283;48.876;8.962;2022-09-29T04:13:48;5.40;99.90
10472;DHT22;5283;48.876;8.962;2022-09-29T04:16:15;5.30;99.90
10472;DHT22;5283;48.876;8.962;2022-09-29T04:18:41;5.20;99.90
10472;DHT22;5283;48.876;8.962;2022-09-29T04:21:08;5.30;99.90
10472;DHT22;5283;48.876;8.962;2022-09-29T04:23:35;5.30;99.90
10472;DHT22;5283;48.876;8.962;2022-09-29T04:26:02;5.20;99.90
10472;DHT22;5283;48.876;8.962;2022-09-29T04:28:34;5.20;99.90
10472;DHT22;5283;48.876;8.962;2022-09-29T04:31:01;5.10;99.90
10472;DHT22;5283;48.876;8.962;2022-09-29T04:33:28;5.10;99.90
10472;DHT22;5283;48.876;8.962;2022-09-29T04:35:56;5.10;99.90
10472;DHT22;5283;48.876;8.962;2022-09-29T04:38:23;5.00;99.90
10472;DHT22;5283;48.876;8.962;2022-09-29T04:40:50;4.90;99.90
10472;DHT22;5283;48.876;8.962;2022-09-29T04:43:17;4.90;99.90
10472;DHT22;5283;48.876;8.962;2022-09-29T04:45:44;4.80;99.90
10472;DHT22;5283;48.876;8.962;2022-09-29T04:48:10;4.70;99.90
10472;DHT22;5283;48.876;8.962;2022-09-29T04:50:37;4.90;99.90
10472;DHT22;5283;48.876;8.962;2022-09-29T04:53:05;4.80;99.90
10472;DHT22;5283;48.876;8.962;2022-09-29T04:55:32;4.80;99.90
10472;DHT22;5283;48.876;8.962;2022-09-29T04:57:59;4.60;99.90
10472;DHT22;5283;48.876;8.962;2022-09-29T05:00:25;4.60;99.90
10472;DHT22;5283;48.876;8.962;2022-09-29T05:02:52;4.60;99.90
10472;DHT22;5283;48.876;8.962;2022-09-29T05:05:19;4.60;99.90
10472;DHT22;5283;48.876;8.962;2022-09-29T05:07:46;4.70;99.90
10472;DHT22;5283;48.876;8.962;2022-09-29T05:10:13;4.70;99.90
10472;DHT22;5283;48.876;8.962;2022-09-29T05:12:40;4.80;99.90
10472;DHT22;5283;48.876;8.962;2022-09-29T05:15:07;4.80;99.90
10472;DHT22;5283;48.876;8.962;2022-09-29T05:17:34;4.80;99.90
10472;DHT22;5283;48.876;8.962;2022-09-29T05:20:00;4.70;99.90
10472;DHT22;5283;48.876;8.962;2022-09-29T05:22:27;4.70;99.90
10472;DHT22;5283;48.876;8.962;2022-09-29T05:24:54;4.60;99.90
10472;DHT22;5283;48.876;8.962;2022-09-29T05:27:20;4.50;99.90
10472;DHT22;5283;48.876;8.962;2022-09-29T05:29:47;4.40;99.90
10472;DHT22;5283;48.876;8.962;2022-09-29T05:32:15;4.50;99.90
10472;DHT22;5283;48.876;8.962;2022-09-29T05:34:42;4.50;99.90
10472;DHT22;5283;48.876;8.962;2022-09-29T05:37:09;4.50;99.90
10472;DHT22;5283;48.876;8.962;2022-09-29T05:39:36;4.40;99.90
10472;DHT22;5283;48.876;8.962;2022-09-29T05:42:04;4.40;99.90
10472;DHT22;5283;48.876;8.962;2022-09-29T05:44:32;4.40;99.90
10472;DHT22;5283;48.876;8.962;2022-09-29T05:47:01;4.50;99.90
10472;DHT22;5283;48.876;8.962;2022-09-29T05:49:28;4.60;99.90
10472;DHT22;5283;48.876;8.962;2022-09-29T05:51:58;4.70;99.90
10472;DHT22;5283;48.876;8.962;2022-09-29T05:54:25;4.70;99.90
10472;DHT22;5283;48.876;8.962;2022-09-29T05:56:53;4.70;99.90
10472;DHT22;5283;48.876;8.962;2022-09-29T05:59:20;4.80;99.90
10472;DHT22;5283;48.876;8.962;2022-09-29T06:01:47;4.80;99.90
10472;DHT22;5283;48.876;8.962;2022-09-29T06:04:13;4.80;99.90
10472;DHT22;5283;48.876;8.962;2022-09-29T06:06:40;4.80;99.90
10472;DHT22;5283;48.876;8.962;2022-09-29T06:09:07;4.80;99.90
10472;DHT22;5283;48.876;8.962;2022-09-29T06:11:34;4.80;99.90
10472;DHT22;5283;48.876;8.962;2022-09-29T06:14:01;4.90;99.90
10472;DHT22;5283;48.876;8.962;2022-09-29T06:16:30;5.00;99.90
10472;DHT22;5283;48.876;8.962;2022-09-29T06:18:58;5.00;99.90
10472;DHT22;5283;48.876;8.962;2022-09-29T06:21:27;5.20;99.90
10472;DHT22;5283;48.876;8.962;2022-09-29T06:23:55;5.50;99.90
10472;DHT22;5283;48.876;8.962;2022-09-29T06:26:23;5.60;99.90
10472;DHT22;5283;48.876;8.962;2022-09-29T06:28:51;5.80;99.90
10472;DHT22;5283;48.876;8.962;2022-09-29T06:31:20;5.80;99.90
10472;DHT22;5283;48.876;8.962;2022-09-29T06:33:47;5.80;99.90
10472;DHT22;5283;48.876;8.962;2022-09-29T06:36:20;5.90;99.90
10472;DHT22;5283;48.876;8.962;2022-09-29T06:39:09;5.90;99.90
10472;DHT22;5283;48.876;8.962;2022-09-29T06:41:36;6.00;99.90
10472;DHT22;5283;48.876;8.962;2022-09-29T06:44:03;6.10;99.90
10472;DHT22;5283;48.876;8.962;2022-09-29T06:46:30;6.20;99.90
10472;DHT22;5283;48.876;8.962;2022-09-29T06:48:57;6.30;99.90
10472;DHT22;5283;48.876;8.962;2022-09-29T06:51:24;6.40;99.90
10472;DHT22;5283;48.876;8.962;2022-09-29T06:53:57;6.60;99.90
10472;DHT22;5283;48.876;8.962;2022-09-29T06:56:31;6.80;99.90
10472;DHT22;5283;48.876;8.962;2022-09-29T06:58:58;7.10;99.90
10472;DHT22;5283;48.876;8.962;2022-09-29T07:01:24;7.30;99.90
10472;DHT22;5283;48.876;8.962;2022-09-29T07:03:51;7.30;99.90
10472;DHT22;5283;48.876;8.962;2022-09-29T07:06:18;7.30;99.90
10472;DHT22;5283;48.876;8.962;2022-09-29T07:08:45;7.70;99.90
10472;DHT22;5283;48.876;8.962;2022-09-29T07:11:12;7.90;99.90
10472;DHT22;5283;48.876;8.962;2022-09-29T07:13:40;8.10;99.90
10472;DHT22;5283;48.876;8.962;2022-09-29T07:16:08;8.10;99.90
10472;DHT22;5283;48.876;8.962;2022-09-29T07:18:37;8.20;99.90
10472;DHT22;5283;48.876;8.962;2022-09-29T07:21:05;8.30;99.90
10472;DHT22;5283;48.876;8.962;2022-09-29T07:23:33;8.40;99.90
10472;DHT22;5283;48.876;8.962;2022-09-29T07:25:59;8.40;99.90
10472;DHT22;5283;48.876;8.962;2022-09-29T07:28:27;8.40;99.90
10472;DHT22;5283;48.876;8.962;2022-09-29T07:30:59;8.60;99.90
10472;DHT22;5283;48.876;8.962;2022-09-29T07:33:34;8.80;99.90
10472;DHT22;5283;48.876;8.962;2022-09-29T07:36:04;9.00;99.90
10472;DHT22;5283;48.876;8.962;2022-09-29T07:38:31;9.20;99.90
10472;DHT22;5283;48.876;8.962;2022-09-29T07:40:59;9.30;99.90
10472;DHT22;5283;48.876;8.962;2022-09-29T07:43:27;9.40;99.90
10472;DHT22;5283;48.876;8.962;2022-09-29T07:45:54;9.30;99.90
10472;DHT22;5283;48.876;8.962;2022-09-29T07:48:22;9.30;99.90
10472;DHT22;5283;48.876;8.962;2022-09-29T07:50:49;9.50;99.90
10472;DHT22;5283;48.876;8.962;2022-09-29T07:53:18;9.40;99.90
10472;DHT22;5283;48.876;8.962;2022-09-29T07:55:44;9.40;99.90
10472;DHT22;5283;48.876;8.962;2022-09-29T07:58:11;9.50;99.90
10472;DHT22;5283;48.876;8.962;2022-09-29T08:00:38;9.70;99.90
10472;DHT22;5283;48.876;8.962;2022-09-29T08:03:06;9.80;99.90
10472;DHT22;5283;48.876;8.962;2022-09-29T08:05:33;10.10;99.90
10472;DHT22;5283;48.876;8.962;2022-09-29T08:08:03;10.30;99.90
10472;DHT22;5283;48.876;8.962;2022-09-29T08:10:31;10.30;99.90
10472;DHT22;5283;48.876;8.962;2022-09-29T08:12:59;10.50;99.90
10472;DHT22;5283;48.876;8.962;2022-09-29T08:15:26;10.60;99.90
10472;DHT22;5283;48.876;8.962;2022-09-29T08:17:54;10.70;99.90
10472;DHT22;5283;48.876;8.962;2022-09-29T08:20:21;10.70;99.90
10472;DHT22;5283;48.876;8.962;2022-09-29T08:22:48;10.40;99.90
10472;DHT22;5283;48.876;8.962;2022-09-29T08:25:16;10.50;99.90
10472;DHT22;5283;48.876;8.962;2022-09-29T08:27:43;10.60;99.90
10472;DHT22;5283;48.876;8.962;2022-09-29T08:30:18;10.70;99.90
10472;DHT22;5283;48.876;8.962;2022-09-29T08:32:52;10.70;99.90
10472;DHT22;5283;48.876;8.962;2022-09-29T08:35:19;10.90;99.90
10472;DHT22;5283;48.876;8.962;2022-09-29T08:37:46;11.30;99.90
10472;DHT22;5283;48.876;8.962;2022-09-29T08:40:15;11.50;99.90
10472;DHT22;5283;48.876;8.962;2022-09-29T08:45:25;11.50;99.90
10472;DHT22;5283;48.876;8.962;2022-09-29T08:48:08;11.40;99.90
10472;DHT22;5283;48.876;8.962;2022-09-29T08:50:53;11.60;99.90
10472;DHT22;5283;48.876;8.962;2022-09-29T08:53:24;11.80;99.90
10472;DHT22;5283;48.876;8.962;2022-09-29T08:55:59;11.70;99.90
10472;DHT22;5283;48.876;8.962;2022-09-29T08:58:28;11.90;99.90
10472;DHT22;5283;48.876;8.962;2022-09-29T09:17:57;11.30;99.90
10472;DHT22;5283;48.876;8.962;2022-09-29T09:22:55;11.30;99.90
10472;DHT22;5283;48.876;8.962;2022-09-29T09:28:15;11.40;99.90
10472;DHT22;5283;48.876;8.962;2022-09-29T09:33:58;11.80;99.90
10472;DHT22;5283;48.876;8.962;2022-09-29T09:36:44;11.70;99.90
10472;DHT22;5283;48.876;8.962;2022-09-29T09:39:42;12.00;99.90
10472;DHT22;5283;48.876;8.962;2022-09-29T09:42:17;12.00;99.90
10472;DHT22;5283;48.876;8.962;2022-09-29T09:44:53;12.00;99.90
10472;DHT22;5283;48.876;8.962;2022-09-29T09:47:27;11.90;99.90
10472;DHT22;5283;48.876;8.962;2022-09-29T09:50:02;11.90;99.90
10472;DHT22;5283;48.876;8.962;2022-09-29T09:52:40;12.10;99.90
10472;DHT22;5283;48.876;8.962;2022-09-29T09:55:18;12.30;99.90
10472;DHT22;5283;48.876;8.962;2022-09-29T10:00:41;12.50;99.90
10472;DHT22;5283;48.876;8.962;2022-09-29T10:03:08;12.90;99.90
10472;DHT22;5283;48.876;8.962;2022-09-29T10:05:38;13.10;99.90
10472;DHT22;5283;48.876;8.962;2022-09-29T10:08:10;13.30;99.90
10472;DHT22;5283;48.876;8.962;2022-09-29T10:10:40;13.30;99.90
10472;DHT22;5283;48.876;8.962;2022-09-29T10:13:13;13.30;99.90
10472;DHT22;5283;48.876;8.962;2022-09-29T10:18:40;13.90;99.90
10472;DHT22;5283;48.876;8.962;2022-09-29T10:23:53;14.30;99.90
10472;DHT22;5283;48.876;8.962;2022-09-29T10:26:23;14.40;99.90
10472;DHT22;5283;48.876;8.962;2022-09-29T10:29:02;14.60;99.90
10472;DHT22;5283;48.876;8.962;2022-09-29T10:31:31;14.40;99.90
10472;DHT22;5283;48.876;8.962;2022-09-29T10:41:59;14.40;99.90
10472;DHT22;5283;48.876;8.962;2022-09-29T10:44:31;14.60;99.90
10472;DHT22;5283;48.876;8.962;2022-09-29T10:46:59;14.90;99.90
10472;DHT22;5283;48.876;8.962;2022-09-29T10:49:27;14.90;99.90
10472;DHT22;5283;48.876;8.962;2022-09-29T10:54:24;14.60;99.90
10472;DHT22;5283;48.876;8.962;2022-09-29T10:56:53;14.50;99.90
10472;DHT22;5283;48.876;8.962;2022-09-29T10:59:21;14.40;99.90
10472;DHT22;5283;48.876;8.962;2022-09-29T11:01:51;14.50;99.90
10472;DHT22;5283;48.876;8.962;2022-09-29T11:04:23;14.50;99.90
10472;DHT22;5283;48.876;8.962;2022-09-29T11:06:52;14.60;99.90
10472;DHT22;5283;48.876;8.962;2022-09-29T11:14:42;15.00;99.90
10472;DHT22;5283;48.876;8.962;2022-09-29T11:17:36;15.20;99.90
10472;DHT22;5283;48.876;8.962;2022-09-29T11:20:08;15.30;99.90
10472;DHT22;5283;48.876;8.962;2022-09-29T11:28:29;15.30;99.90
10472;DHT22;5283;48.876;8.962;2022-09-29T11:45:20;15.40;99.90
10472;DHT22;5283;48.876;8.962;2022-09-29T11:48:10;15.70;99.90
10472;DHT22;5283;48.876;8.962;2022-09-29T11:53:56;16.10;99.90
10472;DHT22;5283;48.876;8.962;2022-09-29T11:56:31;16.20;99.90
10472;DHT22;5283;48.876;8.962;2022-09-29T12:05:02;15.50;99.90
10472;DHT22;5283;48.876;8.962;2022-09-29T12:07:46;15.10;99.90
10472;DHT22;5283;48.876;8.962;2022-09-29T12:10:23;15.30;99.90
10472;DHT22;5283;48.876;8.962;2022-09-29T12:13:12;15.30;99.90
10472;DHT22;5283;48.876;8.962;2022-09-29T12:15:56;15.00;99.90
10472;DHT22;5283;48.876;8.962;2022-09-29T12:18:39;15.50;99.90
10472;DHT22;5283;48.876;8.962;2022-09-29T12:21:08;16.00;99.90
10472;DHT22;5283;48.876;8.962;2022-09-29T12:23:39;16.20;99.90
10472;DHT22;5283;48.876;8.962;2022-09-29T12:26:21;16.20;99.90
10472;DHT22;5283;48.876;8.962;2022-09-29T12:29:01;16.20;99.90
10472;DHT22;5283;48.876;8.962;2022-09-29T12:31:38;15.50;99.90
10472;DHT22;5283;48.876;8.962;2022-09-29T12:39:40;14.90;99.90
10472;DHT22;5283;48.876;8.962;2022-09-29T12:50:38;14.50;99.90
10472;DHT22;5283;48.876;8.962;2022-09-29T12:55:53;14.30;99.90
10472;DHT22;5283;48.876;8.962;2022-09-29T12:58:35;14.30;99.90
10472;DHT22;5283;48.876;8.962;2022-09-29T13:01:18;14.30;99.90
10472;DHT22;5283;48.876;8.962;2022-09-29T13:04:12;14.90;99.90
10472;DHT22;5283;48.876;8.962;2022-09-29T13:07:08;15.30;99.90
10472;DHT22;5283;48.876;8.962;2022-09-29T13:12:39;15.50;99.90
10472;DHT22;5283;48.876;8.962;2022-09-29T13:24:05;15.20;99.90
10472;DHT22;5283;48.876;8.962;2022-09-29T13:26:54;15.30;99.90
10472;DHT22;5283;48.876;8.962;2022-09-29T13:29:28;15.50;99.90
10472;DHT22;5283;48.876;8.962;2022-09-29T13:31:57;15.70;99.90
10472;DHT22;5283;48.876;8.962;2022-09-29T13:37:10;15.90;99.90
10472;DHT22;5283;48.876;8.962;2022-09-29T13:39:41;15.40;99.90
10472;DHT22;5283;48.876;8.962;2022-09-29T13:42:38;15.50;99.90
10472;DHT22;5283;48.876;8.962;2022-09-29T13:47:51;15.30;99.90
10472;DHT22;5283;48.876;8.962;2022-09-29T13:50:47;15.20;99.90
10472;DHT22;5283;48.876;8.962;2022-09-29T13:59:14;15.20;99.90
10472;DHT22;5283;48.876;8.962;2022-09-29T14:01:33;15.00;99.90
10472;DHT22;5283;48.876;8.962;2022-09-29T14:04:29;15.10;99.90
10472;DHT22;5283;48.876;8.962;2022-09-29T14:07:02;15.00;99.90
10472;DHT22;5283;48.876;8.962;2022-09-29T14:09:33;14.70;99.90
10472;DHT22;5283;48.876;8.962;2022-09-29T14:12:08;14.40;99.90
10472;DHT22;5283;48.876;8.962;2022-09-29T14:14:45;14.40;99.90
10472;DHT22;5283;48.876;8.962;2022-09-29T14:27:46;14.20;99.90
10472;DHT22;5283;48.876;8.962;2022-09-29T14:32:59;14.20;99.90
10472;DHT22;5283;48.876;8.962;2022-09-29T14:38:23;13.60;99.90
10472;DHT22;5283;48.876;8.962;2022-09-29T14:40:59;13.60;99.90
10472;DHT22;5283;48.876;8.962;2022-09-29T14:43:42;13.60;99.90
10472;DHT22;5283;48.876;8.962;2022-09-29T14:46:35;13.70;99.90
10472;DHT22;5283;48.876;8.962;2022-09-29T15:01:29;13.10;99.90
10472;DHT22;5283;48.876;8.962;2022-09-29T15:04:10;13.00;99.90
10472;DHT22;5283;48.876;8.962;2022-09-29T15:06:49;13.00;99.90
10472;DHT22;5283;48.876;8.962;2022-09-29T15:09:18;13.00;99.90
10472;DHT22;5283;48.876;8.962;2022-09-29T15:11:50;13.00;99.90
10472;DHT22;5283;48.876;8.962;2022-09-29T15:14:25;13.20;99.90
10472;DHT22;5283;48.876;8.962;2022-09-29T15:27:15;13.40;99.90
10472;DHT22;5283;48.876;8.962;2022-09-29T15:29:46;13.50;99.90
10472;DHT22;5283;48.876;8.962;2022-09-29T15:32:23;13.60;99.90
10472;DHT22;5283;48.876;8.962;2022-09-29T15:34:51;13.70;99.90
10472;DHT22;5283;48.876;8.962;2022-09-29T15:37:19;13.70;99.90
10472;DHT22;5283;48.876;8.962;2022-09-29T15:39:51;13.60;99.90
10472;DHT22;5283;48.876;8.962;2022-09-29T15:42:21;13.60;99.90
10472;DHT22;5283;48.876;8.962;2022-09-29T15:44:58;13.60;99.90
10472;DHT22;5283;48.876;8.962;2022-09-29T15:47:34;13.60;99.90
10472;DHT22;5283;48.876;8.962;2022-09-29T15:50:11;13.60;99.90
10472;DHT22;5283;48.876;8.962;2022-09-29T15:52:41;13.50;99.90
10472;DHT22;5283;48.876;8.962;2022-09-29T15:55:15;13.50;99.90
10472;DHT22;5283;48.876;8.962;2022-09-29T15:57:47;13.40;99.90
10472;DHT22;5283;48.876;8.962;2022-09-29T16:05:21;13.30;99.90
10472;DHT22;5283;48.876;8.962;2022-09-29T16:07:53;13.20;99.90
10472;DHT22;5283;48.876;8.962;2022-09-29T16:10:27;13.20;99.90
10472;DHT22;5283;48.876;8.962;2022-09-29T16:12:57;13.10;99.90
10472;DHT22;5283;48.876;8.962;2022-09-29T16:15:38;13.00;99.90
10472;DHT22;5283;48.876;8.962;2022-09-29T16:18:18;12.90;99.90
10472;DHT22;5283;48.876;8.962;2022-09-29T16:20:46;12.80;99.90
10472;DHT22;5283;48.876;8.962;2022-09-29T16:23:20;12.50;99.90
10472;DHT22;5283;48.876;8.962;2022-09-29T16:28:34;12.10;99.90
10472;DHT22;5283;48.876;8.962;2022-09-29T16:31:04;11.90;99.90
10472;DHT22;5283;48.876;8.962;2022-09-29T16:33:34;11.70;99.90
10472;DHT22;5283;48.876;8.962;2022-09-29T16:36:09;11.50;99.90
10472;DHT22;5283;48.876;8.962;2022-09-29T16:38:43;11.30;99.90
10472;DHT22;5283;48.876;8.962;2022-09-29T16:46:44;10.80;99.90
10472;DHT22;5283;48.876;8.962;2022-09-29T16:49:18;10.70;99.90
10472;DHT22;5283;48.876;8.962;2022-09-29T16:51:47;10.60;99.90
10472;DHT22;5283;48.876;8.962;2022-09-29T16:54:24;10.50;99.90
10472;DHT22;5283;48.876;8.962;2022-09-29T16:57:15;10.30;99.90
10472;DHT22;5283;48.876;8.962;2022-09-29T16:59:44;10.10;99.90
10472;DHT22;5283;48.876;8.962;2022-09-29T17:02:12;10.00;99.90
10472;DHT22;5283;48.876;8.962;2022-09-29T17:04:38;9.80;99.90
10472;DHT22;5283;48.876;8.962;2022-09-29T17:07:05;9.60;99.90
10472;DHT22;5283;48.876;8.962;2022-09-29T17:09:32;9.50;99.90
10472;DHT22;5283;48.876;8.962;2022-09-29T17:11:59;9.40;99.90
10472;DHT22;5283;48.876;8.962;2022-09-29T17:14:26;9.50;99.90
10472;DHT22;5283;48.876;8.962;2022-09-29T17:16:56;9.40;99.90
10472;DHT22;5283;48.876;8.962;2022-09-29T17:19:23;9.40;99.90
10472;DHT22;5283;48.876;8.962;2022-09-29T17:21:52;9.40;99.90
10472;DHT22;5283;48.876;8.962;2022-09-29T17:24:19;9.40;99.90
10472;DHT22;5283;48.876;8.962;2022-09-29T17:26:46;9.30;99.90
10472;DHT22;5283;48.876;8.962;2022-09-29T17:29:32;9.20;99.90
10472;DHT22;5283;48.876;8.962;2022-09-29T17:31:59;9.10;99.90
10472;DHT22;5283;48.876;8.962;2022-09-29T17:34:28;9.10;99.90
10472;DHT22;5283;48.876;8.962;2022-09-29T17:36:59;9.00;99.90
10472;DHT22;5283;48.876;8.962;2022-09-29T17:39:27;9.00;99.90
10472;DHT22;5283;48.876;8.962;2022-09-29T17:41:54;8.90;99.90
10472;DHT22;5283;48.876;8.962;2022-09-29T17:44:21;8.80;99.90
10472;DHT22;5283;48.876;8.962;2022-09-29T17:46:47;8.80;99.90
10472;DHT22;5283;48.876;8.962;2022-09-29T17:49:16;8.80;99.90
10472;DHT22;5283;48.876;8.962;2022-09-29T17:51:43;8.80;99.90
10472;DHT22;5283;48.876;8.962;2022-09-29T17:54:10;8.70;99.90
10472;DHT22;5283;48.876;8.962;2022-09-29T17:56:40;8.70;99.90
10472;DHT22;5283;48.876;8.962;2022-09-29T17:59:07;8.60;99.90
10472;DHT22;5283;48.876;8.962;2022-09-29T18:01:36;8.60;99.90
10472;DHT22;5283;48.876;8.962;2022-09-29T18:04:04;8.70;99.90
10472;DHT22;5283;48.876;8.962;2022-09-29T18:06:31;8.80;99.90
10472;DHT22;5283;48.876;8.962;2022-09-29T18:09:12;8.80;99.90
10472;DHT22;5283;48.876;8.962;2022-09-29T18:11:40;8.80;99.90
10472;DHT22;5283;48.876;8.962;2022-09-29T18:14:07;8.90;99.90
10472;DHT22;5283;48.876;8.962;2022-09-29T18:16:34;8.90;99.90
10472;DHT22;5283;48.876;8.962;2022-09-29T18:19:00;8.90;99.90
10472;DHT22;5283;48.876;8.962;2022-09-29T18:21:27;8.90;99.90
10472;DHT22;5283;48.876;8.962;2022-09-29T18:23:55;8.90;99.90
10472;DHT22;5283;48.876;8.962;2022-09-29T18:26:22;8.90;99.90
10472;DHT22;5283;48.876;8.962;2022-09-29T18:28:49;8.90;99.90
10472;DHT22;5283;48.876;8.962;2022-09-29T18:31:28;8.80;99.90
10472;DHT22;5283;48.876;8.962;2022-09-29T18:33:54;8.80;99.90
10472;DHT22;5283;48.876;8.962;2022-09-29T18:36:21;8.70;99.90
10472;DHT22;5283;48.876;8.962;2022-09-29T18:38:48;8.60;99.90
10472;DHT22;5283;48.876;8.962;2022-09-29T18:41:18;8.50;99.90
10472;DHT22;5283;48.876;8.962;2022-09-29T18:43:46;8.40;99.90
10472;DHT22;5283;48.876;8.962;2022-09-29T18:46:13;8.30;99.90
10472;DHT22;5283;48.876;8.962;2022-09-29T18:48:40;8.20;99.90
10472;DHT22;5283;48.876;8.962;2022-09-29T18:51:07;8.20;99.90
10472;DHT22;5283;48.876;8.962;2022-09-29T18:53:39;8.10;99.90
10472;DHT22;5283;48.876;8.962;2022-09-29T18:56:13;8.00;99.90
10472;DHT22;5283;48.876;8.962;2022-09-29T18:58:40;7.90;99.90
10472;DHT22;5283;48.876;8.962;2022-09-29T19:01:11;7.80;99.90
10472;DHT22;5283;48.876;8.962;2022-09-29T19:03:39;7.70;99.90
10472;DHT22;5283;48.876;8.962;2022-09-29T19:06:07;7.70;99.90
10472;DHT22;5283;48.876;8.962;2022-09-29T19:08:34;7.60;99.90
10472;DHT22;5283;48.876;8.962;2022-09-29T19:11:01;7.60;99.90
10472;DHT22;5283;48.876;8.962;2022-09-29T19:13:30;7.60;99.90
10472;DHT22;5283;48.876;8.962;2022-09-29T19:15:57;7.70;99.90
10472;DHT22;5283;48.876;8.962;2022-09-29T19:18:25;7.70;99.90
10472;DHT22;5283;48.876;8.962;2022-09-29T19:20:56;7.50;99.90
10472;DHT22;5283;48.876;8.962;2022-09-29T19:23:25;7.40;99.90
10472;DHT22;5283;48.876;8.962;2022-09-29T19:25:53;7.40;99.90
10472;DHT22;5283;48.876;8.962;2022-09-29T19:28:21;7.40;99.90
10472;DHT22;5283;48.876;8.962;2022-09-29T19:30:48;7.30;99.90
10472;DHT22;5283;48.876;8.962;2022-09-29T19:33:18;7.20;99.90
10472;DHT22;5283;48.876;8.962;2022-09-29T19:35:48;7.00;99.90
10472;DHT22;5283;48.876;8.962;2022-09-29T19:38:17;7.00;99.90
10472;DHT22;5283;48.876;8.962;2022-09-29T19:40:45;7.00;99.90
10472;DHT22;5283;48.876;8.962;2022-09-29T19:43:12;7.00;99.90